sensor_id;sensor_type;location;lat;lon;timestamp;temperature;humidity
54409;DHT22;40315;48.620;9.828;2023-06-14T00:02:03;14.00;90.00
54409;DHT22;40315;48.620;9.828;2023-06-14T00:04:30;14.00;90.10
54409;DHT22;40315;48.620;9.828;2023-06-14T00:06:57;13.90;90.50
54409;DHT22;40315;48.620;9.828;2023-06-14T00:09:24;13.80;90.20
54409;DHT22;40315;48.620;9.828;2023-06-14T00:11:51;13.80;90.90
54409;DHT22;40315;48.620;9.828;2023-06-14T00:14:18;13.60;90.90
54409;DHT22;40315;48.620;9.828;2023-06-14T00:16:45;13.50;90.90
54409;DHT22;40315;48.620;9.828;2023-06-14T00:19:14;13.40;91.30
54409;DHT22;40315;48.620;9.828;2023-06-14T00:21:41;13.50;90.80
54409;DHT22;40315;48.620;9.828;2023-06-14T00:26:38;13.50;90.90
54409;DHT22;40315;48.620;9.828;2023-06-14T00:29:07;13.70;90.60
54409;DHT22;40315;48.620;9.828;2023-06-14T00:31:35;13.70;90.90
54409;DHT22;40315;48.620;9.828;2023-06-14T00:34:02;13.80;90.50
54409;DHT22;40315;48.620;9.828;2023-06-14T00:36:31;13.80;90.50
54409;DHT22;40315;48.620;9.828;2023-06-14T00:38:58;13.70;91.20
54409;DHT22;40315;48.620;9.828;2023-06-14T00:41:25;13.60;91.60
54409;DHT22;40315;48.620;9.828;2023-06-14T00:43:54;13.50;91.40
54409;DHT22;40315;48.620;9.828;2023-06-14T00:46:22;13.50;91.80
54409;DHT22;40315;48.620;9.828;2023-06-14T00:48:49;13.40;91.70
54409;DHT22;40315;48.620;9.828;2023-06-14T00:51:17;13.40;92.00
54409;DHT22;40315;48.620;9.828;2023-06-14T00:53:45;13.40;91.90
54409;DHT22;40315;48.620;9.828;2023-06-14T00:56:12;13.30;91.40
54409;DHT22;40315;48.620;9.828;2023-06-14T00:58:41;13.50;91.50
54409;DHT22;40315;48.620;9.828;2023-06-14T01:03:45;13.60;91.00
54409;DHT22;40315;48.620;9.828;2023-06-14T01:06:19;13.40;91.90
54409;DHT22;40315;48.620;9.828;2023-06-14T01:09:09;13.30;92.20
54409;DHT22;40315;48.620;9.828;2023-06-14T01:11:44;13.20;92.40
54409;DHT22;40315;48.620;9.828;2023-06-14T01:14:14;13.30;91.80
54409;DHT22;40315;48.620;9.828;2023-06-14T01:16:45;13.50;91.90
54409;DHT22;40315;48.620;9.828;2023-06-14T01:19:14;13.10;92.20
54409;DHT22;40315;48.620;9.828;2023-06-14T01:21:42;13.20;92.50
54409;DHT22;40315;48.620;9.828;2023-06-14T01:24:11;13.10;92.80
54409;DHT22;40315;48.620;9.828;2023-06-14T01:26:38;12.80;92.90
54409;DHT22;40315;48.620;9.828;2023-06-14T01:29:14;12.70;93.00
54409;DHT22;40315;48.620;9.828;2023-06-14T01:31:45;12.60;93.20
54409;DHT22;40315;48.620;9.828;2023-06-14T01:34:13;12.70;93.50
54409;DHT22;40315;48.620;9.828;2023-06-14T01:36:42;12.90;92.70
54409;DHT22;40315;48.620;9.828;2023-06-14T01:39:14;12.90;92.90
54409;DHT22;40315;48.620;9.828;2023-06-14T01:41:41;12.90;93.00
54409;DHT22;40315;48.620;9.828;2023-06-14T01:44:10;12.80;92.90
54409;DHT22;40315;48.620;9.828;2023-06-14T01:46:39;12.90;93.10
54409;DHT22;40315;48.620;9.828;2023-06-14T03:46:58;11.70;97.20
54409;DHT22;40315;48.620;9.828;2023-06-14T03:49:26;11.60;98.00
54409;DHT22;40315;48.620;9.828;2023-06-14T03:51:56;11.60;98.10
54409;DHT22;40315;48.620;9.828;2023-06-14T03:54:27;11.60;97.80
54409;DHT22;40315;48.620;9.828;2023-06-14T03:56:55;11.60;98.10
54409;DHT22;40315;48.620;9.828;2023-06-14T03:59:23;11.70;97.50
54409;DHT22;40315;48.620;9.828;2023-06-14T04:01:51;11.70;97.90
54409;DHT22;40315;48.620;9.828;2023-06-14T04:04:22;11.70;97.90
54409;DHT22;40315;48.620;9.828;2023-06-14T04:06:56;11.60;98.30
54409;DHT22;40315;48.620;9.828;2023-06-14T04:09:24;11.60;98.70
54409;DHT22;40315;48.620;9.828;2023-06-14T04:11:51;11.50;98.80
54409;DHT22;40315;48.620;9.828;2023-06-14T04:14:19;11.50;98.60
54409;DHT22;40315;48.620;9.828;2023-06-14T04:16:46;11.60;98.60
54409;DHT22;40315;48.620;9.828;2023-06-14T04:19:16;11.50;98.80
54409;DHT22;40315;48.620;9.828;2023-06-14T04:21:45;11.50;98.90
54409;DHT22;40315;48.620;9.828;2023-06-14T04:24:16;11.30;99.30
54409;DHT22;40315;48.620;9.828;2023-06-14T04:26:46;11.30;99.20
54409;DHT22;40315;48.620;9.828;2023-06-14T04:29:16;11.30;99.50
54409;DHT22;40315;48.620;9.828;2023-06-14T04:31:51;11.50;99.20
54409;DHT22;40315;48.620;9.828;2023-06-14T04:34:20;11.60;99.30
54409;DHT22;40315;48.620;9.828;2023-06-14T04:36:53;11.70;99.00
54409;DHT22;40315;48.620;9.828;2023-06-14T04:39:27;11.90;98.50
54409;DHT22;40315;48.620;9.828;2023-06-14T04:41:54;11.90;98.30
54409;DHT22;40315;48.620;9.828;2023-06-14T04:44:27;11.80;98.10
54409;DHT22;40315;48.620;9.828;2023-06-14T04:46:59;12.10;98.00
54409;DHT22;40315;48.620;9.828;2023-06-14T04:49:26;12.10;98.70
54409;DHT22;40315;48.620;9.828;2023-06-14T04:51:57;12.00;99.00
54409;DHT22;40315;48.620;9.828;2023-06-14T04:54:28;11.90;99.50
54409;DHT22;40315;48.620;9.828;2023-06-14T04:56:57;11.90;99.70
54409;DHT22;40315;48.620;9.828;2023-06-14T04:59:26;11.90;99.80
54409;DHT22;40315;48.620;9.828;2023-06-14T05:01:53;12.00;99.90
54409;DHT22;40315;48.620;9.828;2023-06-14T05:04:22;12.00;99.90
54409;DHT22;40315;48.620;9.828;2023-06-14T05:06:51;12.40;99.90
54409;DHT22;40315;48.620;9.828;2023-06-14T05:09:23;14.20;97.60
54409;DHT22;40315;48.620;9.828;2023-06-14T05:11:51;16.60;93.20
54409;DHT22;40315;48.620;9.828;2023-06-14T05:14:18;18.20;90.20
54409;DHT22;40315;48.620;9.828;2023-06-14T05:16:46;20.20;83.50
54409;DHT22;40315;48.620;9.828;2023-06-14T05:19:14;21.70;78.40
54409;DHT22;40315;48.620;9.828;2023-06-14T05:21:43;23.00;73.80
54409;DHT22;40315;48.620;9.828;2023-06-14T05:24:10;23.80;70.80
54409;DHT22;40315;48.620;9.828;2023-06-14T05:26:38;24.40;68.00
54409;DHT22;40315;48.620;9.828;2023-06-14T05:29:06;24.80;66.00
54409;DHT22;40315;48.620;9.828;2023-06-14T05:31:33;24.80;64.60
54409;DHT22;40315;48.620;9.828;2023-06-14T05:34:02;24.70;65.50
54409;DHT22;40315;48.620;9.828;2023-06-14T05:36:29;24.40;65.30
54409;DHT22;40315;48.620;9.828;2023-06-14T05:38:59;24.10;67.20
54409;DHT22;40315;48.620;9.828;2023-06-14T05:41:28;24.00;67.10
54409;DHT22;40315;48.620;9.828;2023-06-14T05:44:00;23.70;67.70
54409;DHT22;40315;48.620;9.828;2023-06-14T05:46:28;23.60;67.10
54409;DHT22;40315;48.620;9.828;2023-06-14T05:48:57;23.50;68.00
54409;DHT22;40315;48.620;9.828;2023-06-14T05:51:24;23.40;69.20
54409;DHT22;40315;48.620;9.828;2023-06-14T05:53:52;23.40;68.90
54409;DHT22;40315;48.620;9.828;2023-06-14T05:56:21;23.30;68.70
54409;DHT22;40315;48.620;9.828;2023-06-14T05:58:48;23.30;69.00
54409;DHT22;40315;48.620;9.828;2023-06-14T06:01:17;23.30;70.20
54409;DHT22;40315;48.620;9.828;2023-06-14T06:03:44;23.20;69.20
54409;DHT22;40315;48.620;9.828;2023-06-14T06:06:13;23.10;70.00
54409;DHT22;40315;48.620;9.828;2023-06-14T06:08:41;23.10;69.30
54409;DHT22;40315;48.620;9.828;2023-06-14T06:11:08;23.10;70.40
54409;DHT22;40315;48.620;9.828;2023-06-14T06:13:36;23.10;69.70
54409;DHT22;40315;48.620;9.828;2023-06-14T06:16:04;23.30;70.20
54409;DHT22;40315;48.620;9.828;2023-06-14T06:18:33;23.50;68.50
54409;DHT22;40315;48.620;9.828;2023-06-14T06:21:00;23.60;68.80
54409;DHT22;40315;48.620;9.828;2023-06-14T06:23:31;23.90;69.10
54409;DHT22;40315;48.620;9.828;2023-06-14T06:25:58;24.00;65.60
54409;DHT22;40315;48.620;9.828;2023-06-14T06:28:25;24.00;66.10
54409;DHT22;40315;48.620;9.828;2023-06-14T06:30:54;23.90;63.50
54409;DHT22;40315;48.620;9.828;2023-06-14T06:33:21;23.70;64.70
54409;DHT22;40315;48.620;9.828;2023-06-14T06:35:49;23.70;65.40
54409;DHT22;40315;48.620;9.828;2023-06-14T06:38:16;24.00;64.00
54409;DHT22;40315;48.620;9.828;2023-06-14T06:40:46;24.10;65.70
54409;DHT22;40315;48.620;9.828;2023-06-14T06:43:13;24.10;64.00
54409;DHT22;40315;48.620;9.828;2023-06-14T06:45:46;24.20;65.10
54409;DHT22;40315;48.620;9.828;2023-06-14T06:48:13;24.10;64.70
54409;DHT22;40315;48.620;9.828;2023-06-14T06:50:41;24.00;64.50
54409;DHT22;40315;48.620;9.828;2023-06-14T06:53:10;23.70;63.30
54409;DHT22;40315;48.620;9.828;2023-06-14T06:55:37;23.40;64.70
54409;DHT22;40315;48.620;9.828;2023-06-14T06:58:06;23.40;65.00
54409;DHT22;40315;48.620;9.828;2023-06-14T07:00:33;23.30;67.80
54409;DHT22;40315;48.620;9.828;2023-06-14T07:03:00;23.50;65.70
54409;DHT22;40315;48.620;9.828;2023-06-14T07:05:29;23.70;68.00
54409;DHT22;40315;48.620;9.828;2023-06-14T07:07:57;24.20;65.10
54409;DHT22;40315;48.620;9.828;2023-06-14T07:10:25;24.00;64.40
54409;DHT22;40315;48.620;9.828;2023-06-14T07:12:52;24.20;66.00
54409;DHT22;40315;48.620;9.828;2023-06-14T07:15:19;24.30;64.10
54409;DHT22;40315;48.620;9.828;2023-06-14T07:17:46;24.30;64.30
54409;DHT22;40315;48.620;9.828;2023-06-14T07:20:13;24.40;64.00
54409;DHT22;40315;48.620;9.828;2023-06-14T07:22:42;24.70;64.70
54409;DHT22;40315;48.620;9.828;2023-06-14T07:25:10;25.00;61.50
54409;DHT22;40315;48.620;9.828;2023-06-14T07:27:41;25.00;60.50
54409;DHT22;40315;48.620;9.828;2023-06-14T07:30:10;25.00;64.20
54409;DHT22;40315;48.620;9.828;2023-06-14T07:32:38;25.10;62.30
54409;DHT22;40315;48.620;9.828;2023-06-14T07:35:06;25.00;61.00
54409;DHT22;40315;48.620;9.828;2023-06-14T07:37:33;24.80;60.10
54409;DHT22;40315;48.620;9.828;2023-06-14T07:40:03;25.10;59.50
54409;DHT22;40315;48.620;9.828;2023-06-14T07:42:33;25.60;61.00
54409;DHT22;40315;48.620;9.828;2023-06-14T07:45:02;25.60;58.90
54409;DHT22;40315;48.620;9.828;2023-06-14T07:47:29;25.60;59.10
54409;DHT22;40315;48.620;9.828;2023-06-14T07:49:57;25.60;59.60
54409;DHT22;40315;48.620;9.828;2023-06-14T07:52:24;24.70;58.60
54409;DHT22;40315;48.620;9.828;2023-06-14T07:54:54;24.30;59.80
54409;DHT22;40315;48.620;9.828;2023-06-14T07:57:23;24.40;62.10
54409;DHT22;40315;48.620;9.828;2023-06-14T07:59:51;24.70;61.40
54409;DHT22;40315;48.620;9.828;2023-06-14T08:02:20;24.70;60.30
54409;DHT22;40315;48.620;9.828;2023-06-14T08:04:47;25.10;60.70
54409;DHT22;40315;48.620;9.828;2023-06-14T08:07:15;25.60;60.20
54409;DHT22;40315;48.620;9.828;2023-06-14T08:09:44;25.90;58.70
54409;DHT22;40315;48.620;9.828;2023-06-14T08:12:13;26.10;58.80
54409;DHT22;40315;48.620;9.828;2023-06-14T08:14:41;25.80;58.70
54409;DHT22;40315;48.620;9.828;2023-06-14T08:17:09;25.80;59.30
54409;DHT22;40315;48.620;9.828;2023-06-14T08:19:37;25.50;58.60
54409;DHT22;40315;48.620;9.828;2023-06-14T08:22:06;25.60;57.90
54409;DHT22;40315;48.620;9.828;2023-06-14T08:24:33;25.60;58.90
54409;DHT22;40315;48.620;9.828;2023-06-14T08:27:03;25.00;59.40
54409;DHT22;40315;48.620;9.828;2023-06-14T08:29:32;25.00;59.50
54409;DHT22;40315;48.620;9.828;2023-06-14T08:32:01;24.70;60.00
54409;DHT22;40315;48.620;9.828;2023-06-14T08:34:28;24.80;60.00
54409;DHT22;40315;48.620;9.828;2023-06-14T08:36:59;24.90;59.20
54409;DHT22;40315;48.620;9.828;2023-06-14T08:39:26;24.90;59.00
54409;DHT22;40315;48.620;9.828;2023-06-14T08:41:53;25.10;58.80
54409;DHT22;40315;48.620;9.828;2023-06-14T08:44:21;25.20;60.10
54409;DHT22;40315;48.620;9.828;2023-06-14T08:46:50;25.20;58.70
54409;DHT22;40315;48.620;9.828;2023-06-14T08:49:20;25.30;57.70
54409;DHT22;40315;48.620;9.828;2023-06-14T08:51:50;25.30;58.70
54409;DHT22;40315;48.620;9.828;2023-06-14T08:54:22;25.30;59.00
54409;DHT22;40315;48.620;9.828;2023-06-14T08:56:49;25.30;56.50
54409;DHT22;40315;48.620;9.828;2023-06-14T08:59:18;25.40;57.60
54409;DHT22;40315;48.620;9.828;2023-06-14T09:01:47;25.30;57.50
54409;DHT22;40315;48.620;9.828;2023-06-14T09:04:17;25.50;57.10
54409;DHT22;40315;48.620;9.828;2023-06-14T09:06:45;25.40;57.50
54409;DHT22;40315;48.620;9.828;2023-06-14T09:09:12;25.30;58.40
54409;DHT22;40315;48.620;9.828;2023-06-14T09:11:43;25.00;58.40
54409;DHT22;40315;48.620;9.828;2023-06-14T09:14:10;25.60;58.40
54409;DHT22;40315;48.620;9.828;2023-06-14T09:16:37;25.70;56.10
54409;DHT22;40315;48.620;9.828;2023-06-14T09:19:06;25.80;56.30
54409;DHT22;40315;48.620;9.828;2023-06-14T09:21:34;26.20;56.80
54409;DHT22;40315;48.620;9.828;2023-06-14T09:24:01;26.40;55.70
54409;DHT22;40315;48.620;9.828;2023-06-14T09:26:30;26.40;56.10
54409;DHT22;40315;48.620;9.828;2023-06-14T09:29:01;26.50;55.80
54409;DHT22;40315;48.620;9.828;2023-06-14T09:31:28;26.50;55.50
54409;DHT22;40315;48.620;9.828;2023-06-14T09:33:57;26.60;55.70
54409;DHT22;40315;48.620;9.828;2023-06-14T09:36:27;26.90;55.50
54409;DHT22;40315;48.620;9.828;2023-06-14T09:38:57;26.40;55.20
54409;DHT22;40315;48.620;9.828;2023-06-14T09:41:32;26.00;55.70
54409;DHT22;40315;48.620;9.828;2023-06-14T09:44:03;26.70;56.40
54409;DHT22;40315;48.620;9.828;2023-06-14T09:46:33;27.30;55.60
54409;DHT22;40315;48.620;9.828;2023-06-14T09:49:02;27.00;53.90
54409;DHT22;40315;48.620;9.828;2023-06-14T09:51:29;26.80;53.80
54409;DHT22;40315;48.620;9.828;2023-06-14T09:53:59;26.80;53.10
54409;DHT22;40315;48.620;9.828;2023-06-14T09:56:28;27.00;53.50
54409;DHT22;40315;48.620;9.828;2023-06-14T09:58:57;27.10;52.70
54409;DHT22;40315;48.620;9.828;2023-06-14T10:01:28;27.10;52.30
54409;DHT22;40315;48.620;9.828;2023-06-14T10:04:03;26.80;52.90
54409;DHT22;40315;48.620;9.828;2023-06-14T10:06:36;26.60;52.50
54409;DHT22;40315;48.620;9.828;2023-06-14T10:09:08;27.30;52.50
54409;DHT22;40315;48.620;9.828;2023-06-14T10:11:36;27.80;52.80
54409;DHT22;40315;48.620;9.828;2023-06-14T10:14:06;28.00;51.90
54409;DHT22;40315;48.620;9.828;2023-06-14T10:16:39;27.80;51.60
54409;DHT22;40315;48.620;9.828;2023-06-14T10:19:18;27.70;53.20
54409;DHT22;40315;48.620;9.828;2023-06-14T10:21:51;28.00;52.80
54409;DHT22;40315;48.620;9.828;2023-06-14T10:24:27;27.20;55.40
54409;DHT22;40315;48.620;9.828;2023-06-14T10:26:58;27.10;56.30
54409;DHT22;40315;48.620;9.828;2023-06-14T10:29:25;27.50;53.70
54409;DHT22;40315;48.620;9.828;2023-06-14T10:31:58;27.20;54.80
54409;DHT22;40315;48.620;9.828;2023-06-14T10:34:27;26.60;56.50
54409;DHT22;40315;48.620;9.828;2023-06-14T10:37:02;26.90;55.60
54409;DHT22;40315;48.620;9.828;2023-06-14T10:39:32;27.30;53.60
54409;DHT22;40315;48.620;9.828;2023-06-14T10:42:03;26.90;53.80
54409;DHT22;40315;48.620;9.828;2023-06-14T10:44:42;27.00;54.40
54409;DHT22;40315;48.620;9.828;2023-06-14T10:47:23;27.00;53.50
54409;DHT22;40315;48.620;9.828;2023-06-14T10:49:52;26.80;54.30
54409;DHT22;40315;48.620;9.828;2023-06-14T10:52:26;27.40;54.60
54409;DHT22;40315;48.620;9.828;2023-06-14T10:55:05;27.50;52.40
54409;DHT22;40315;48.620;9.828;2023-06-14T10:57:36;26.80;52.70
54409;DHT22;40315;48.620;9.828;2023-06-14T11:00:05;26.50;53.40
54409;DHT22;40315;48.620;9.828;2023-06-14T11:05:52;25.70;55.00
54409;DHT22;40315;48.620;9.828;2023-06-14T11:08:52;25.60;54.30
54409;DHT22;40315;48.620;9.828;2023-06-14T11:11:25;25.50;54.60
54409;DHT22;40315;48.620;9.828;2023-06-14T11:13:57;25.50;54.60
54409;DHT22;40315;48.620;9.828;2023-06-14T11:16:26;25.30;55.00
54409;DHT22;40315;48.620;9.828;2023-06-14T11:18:55;25.60;56.10
54409;DHT22;40315;48.620;9.828;2023-06-14T11:21:24;26.00;55.30
54409;DHT22;40315;48.620;9.828;2023-06-14T11:23:57;25.70;54.30
54409;DHT22;40315;48.620;9.828;2023-06-14T11:26:25;26.00;55.10
54409;DHT22;40315;48.620;9.828;2023-06-14T11:28:56;26.10;54.70
54409;DHT22;40315;48.620;9.828;2023-06-14T11:31:25;26.10;55.40
54409;DHT22;40315;48.620;9.828;2023-06-14T11:33:56;26.60;53.00
54409;DHT22;40315;48.620;9.828;2023-06-14T11:36:26;26.80;51.80
54409;DHT22;40315;48.620;9.828;2023-06-14T11:38:58;26.90;52.50
54409;DHT22;40315;48.620;9.828;2023-06-14T11:41:31;27.30;52.60
54409;DHT22;40315;48.620;9.828;2023-06-14T11:44:02;26.80;54.60
54409;DHT22;40315;48.620;9.828;2023-06-14T11:46:29;27.00;53.20
54409;DHT22;40315;48.620;9.828;2023-06-14T11:48:57;27.10;53.10
54409;DHT22;40315;48.620;9.828;2023-06-14T11:51:24;27.20;52.70
54409;DHT22;40315;48.620;9.828;2023-06-14T11:53:51;27.70;52.50
54409;DHT22;40315;48.620;9.828;2023-06-14T11:56:19;27.90;51.40
54409;DHT22;40315;48.620;9.828;2023-06-14T11:58:46;28.20;51.60
54409;DHT22;40315;48.620;9.828;2023-06-14T12:01:16;28.00;52.70
54409;DHT22;40315;48.620;9.828;2023-06-14T12:03:49;27.50;51.80
54409;DHT22;40315;48.620;9.828;2023-06-14T12:06:28;27.00;53.80
54409;DHT22;40315;48.620;9.828;2023-06-14T12:09:03;26.20;54.30
54409;DHT22;40315;48.620;9.828;2023-06-14T12:11:34;25.60;55.10
54409;DHT22;40315;48.620;9.828;2023-06-14T12:14:03;25.60;55.50
54409;DHT22;40315;48.620;9.828;2023-06-14T12:16:32;25.20;55.60
54409;DHT22;40315;48.620;9.828;2023-06-14T12:19:12;25.20;55.30
54409;DHT22;40315;48.620;9.828;2023-06-14T12:21:41;25.80;56.40
54409;DHT22;40315;48.620;9.828;2023-06-14T12:24:09;26.40;55.20
54409;DHT22;40315;48.620;9.828;2023-06-14T12:26:40;27.10;52.60
54409;DHT22;40315;48.620;9.828;2023-06-14T12:29:08;27.80;52.60
54409;DHT22;40315;48.620;9.828;2023-06-14T12:31:38;28.40;51.20
54409;DHT22;40315;48.620;9.828;2023-06-14T12:34:07;28.90;50.90
54409;DHT22;40315;48.620;9.828;2023-06-14T12:36:35;29.10;50.30
54409;DHT22;40315;48.620;9.828;2023-06-14T12:39:11;29.10;51.10
54409;DHT22;40315;48.620;9.828;2023-06-14T12:41:39;28.50;50.70
54409;DHT22;40315;48.620;9.828;2023-06-14T12:44:10;27.90;50.50
54409;DHT22;40315;48.620;9.828;2023-06-14T12:46:37;27.80;50.80
54409;DHT22;40315;48.620;9.828;2023-06-14T12:49:05;28.00;52.50
54409;DHT22;40315;48.620;9.828;2023-06-14T12:51:32;28.70;51.70
54409;DHT22;40315;48.620;9.828;2023-06-14T12:53:59;28.30;51.60
54409;DHT22;40315;48.620;9.828;2023-06-14T12:56:28;28.20;51.20
54409;DHT22;40315;48.620;9.828;2023-06-14T12:58:56;28.70;50.80
54409;DHT22;40315;48.620;9.828;2023-06-14T13:01:25;28.80;51.50
54409;DHT22;40315;48.620;9.828;2023-06-14T13:03:52;29.30;50.50
54409;DHT22;40315;48.620;9.828;2023-06-14T13:06:20;29.20;49.30
54409;DHT22;40315;48.620;9.828;2023-06-14T13:08:48;28.90;49.00
54409;DHT22;40315;48.620;9.828;2023-06-14T13:11:16;28.40;50.80
54409;DHT22;40315;48.620;9.828;2023-06-14T13:13:45;28.00;50.10
54409;DHT22;40315;48.620;9.828;2023-06-14T13:16:12;27.60;50.80
54409;DHT22;40315;48.620;9.828;2023-06-14T13:18:40;27.10;51.20
54409;DHT22;40315;48.620;9.828;2023-06-14T13:21:07;26.60;51.90
54409;DHT22;40315;48.620;9.828;2023-06-14T13:23:34;26.70;52.90
54409;DHT22;40315;48.620;9.828;2023-06-14T13:26:01;26.60;52.80
54409;DHT22;40315;48.620;9.828;2023-06-14T13:28:29;26.60;53.10
54409;DHT22;40315;48.620;9.828;2023-06-14T13:31:01;26.50;53.80
54409;DHT22;40315;48.620;9.828;2023-06-14T13:33:28;26.70;54.00
54409;DHT22;40315;48.620;9.828;2023-06-14T13:35:56;26.70;53.60
54409;DHT22;40315;48.620;9.828;2023-06-14T13:38:24;26.90;53.60
54409;DHT22;40315;48.620;9.828;2023-06-14T13:40:52;26.60;53.10
54409;DHT22;40315;48.620;9.828;2023-06-14T13:43:21;26.80;53.70
54409;DHT22;40315;48.620;9.828;2023-06-14T13:45:49;26.50;53.30
54409;DHT22;40315;48.620;9.828;2023-06-14T13:48:19;26.40;53.30
54409;DHT22;40315;48.620;9.828;2023-06-14T13:50:47;26.30;53.10
54409;DHT22;40315;48.620;9.828;2023-06-14T13:53:14;26.60;53.80
54409;DHT22;40315;48.620;9.828;2023-06-14T13:55:42;26.70;53.50
54409;DHT22;40315;48.620;9.828;2023-06-14T13:58:09;26.60;53.80
54409;DHT22;40315;48.620;9.828;2023-06-14T14:00:36;27.00;53.90
54409;DHT22;40315;48.620;9.828;2023-06-14T14:03:06;26.60;53.30
54409;DHT22;40315;48.620;9.828;2023-06-14T14:05:36;27.40;53.30
54409;DHT22;40315;48.620;9.828;2023-06-14T14:08:03;27.70;53.10
54409;DHT22;40315;48.620;9.828;2023-06-14T14:10:32;28.20;51.60
54409;DHT22;40315;48.620;9.828;2023-06-14T14:13:02;28.10;50.60
54409;DHT22;40315;48.620;9.828;2023-06-14T14:15:29;28.00;51.40
54409;DHT22;40315;48.620;9.828;2023-06-14T14:17:56;28.30;51.20
54409;DHT22;40315;48.620;9.828;2023-06-14T14:20:24;28.30;51.10
54409;DHT22;40315;48.620;9.828;2023-06-14T14:22:52;27.90;51.10
54409;DHT22;40315;48.620;9.828;2023-06-14T14:25:19;27.70;51.50
54409;DHT22;40315;48.620;9.828;2023-06-14T14:27:47;27.40;51.20
54409;DHT22;40315;48.620;9.828;2023-06-14T14:30:16;26.90;52.70
54409;DHT22;40315;48.620;9.828;2023-06-14T14:32:46;27.20;52.70
54409;DHT22;40315;48.620;9.828;2023-06-14T14:35:15;27.30;53.40
54409;DHT22;40315;48.620;9.828;2023-06-14T14:37:44;26.90;52.60
54409;DHT22;40315;48.620;9.828;2023-06-14T14:40:13;26.50;53.20
54409;DHT22;40315;48.620;9.828;2023-06-14T14:42:40;26.50;53.90
54409;DHT22;40315;48.620;9.828;2023-06-14T14:45:08;26.40;53.10
54409;DHT22;40315;48.620;9.828;2023-06-14T14:47:35;26.50;53.70
54409;DHT22;40315;48.620;9.828;2023-06-14T14:50:02;26.30;54.10
54409;DHT22;40315;48.620;9.828;2023-06-14T14:52:34;26.10;56.00
54409;DHT22;40315;48.620;9.828;2023-06-14T14:55:01;26.20;54.40
54409;DHT22;40315;48.620;9.828;2023-06-14T14:57:30;26.50;54.00
54409;DHT22;40315;48.620;9.828;2023-06-14T15:00:00;26.60;53.20
54409;DHT22;40315;48.620;9.828;2023-06-14T15:02:27;27.00;53.60
54409;DHT22;40315;48.620;9.828;2023-06-14T15:04:57;27.50;52.50
54409;DHT22;40315;48.620;9.828;2023-06-14T15:07:26;27.80;52.00
54409;DHT22;40315;48.620;9.828;2023-06-14T15:09:54;27.90;51.50
54409;DHT22;40315;48.620;9.828;2023-06-14T15:12:21;28.10;51.20
54409;DHT22;40315;48.620;9.828;2023-06-14T15:14:51;28.30;51.30
54409;DHT22;40315;48.620;9.828;2023-06-14T15:17:19;28.30;50.80
54409;DHT22;40315;48.620;9.828;2023-06-14T15:19:48;28.30;51.00
54409;DHT22;40315;48.620;9.828;2023-06-14T15:22:16;28.20;51.50
54409;DHT22;40315;48.620;9.828;2023-06-14T15:24:45;27.10;51.80
54409;DHT22;40315;48.620;9.828;2023-06-14T15:27:12;26.30;53.60
54409;DHT22;40315;48.620;9.828;2023-06-14T15:29:41;26.30;54.30
54409;DHT22;40315;48.620;9.828;2023-06-14T15:32:12;26.40;54.20
54409;DHT22;40315;48.620;9.828;2023-06-14T15:34:41;26.30;54.50
54409;DHT22;40315;48.620;9.828;2023-06-14T15:37:08;26.20;54.50
54409;DHT22;40315;48.620;9.828;2023-06-14T15:39:38;26.20;54.20
54409;DHT22;40315;48.620;9.828;2023-06-14T15:42:05;26.10;54.90
54409;DHT22;40315;48.620;9.828;2023-06-14T15:44:33;25.70;55.40
54409;DHT22;40315;48.620;9.828;2023-06-14T15:47:02;25.40;55.60
54409;DHT22;40315;48.620;9.828;2023-06-14T15:49:31;25.20;56.50
54409;DHT22;40315;48.620;9.828;2023-06-14T15:52:00;25.20;56.40
54409;DHT22;40315;48.620;9.828;2023-06-14T15:54:28;25.10;56.20
54409;DHT22;40315;48.620;9.828;2023-06-14T15:56:55;25.20;56.50
54409;DHT22;40315;48.620;9.828;2023-06-14T15:59:22;25.50;56.10
54409;DHT22;40315;48.620;9.828;2023-06-14T16:01:49;25.60;55.50
54409;DHT22;40315;48.620;9.828;2023-06-14T16:04:16;25.80;55.30
54409;DHT22;40315;48.620;9.828;2023-06-14T16:06:45;26.20;55.10
54409;DHT22;40315;48.620;9.828;2023-06-14T16:09:12;26.40;54.40
54409;DHT22;40315;48.620;9.828;2023-06-14T16:11:39;26.50;54.90
54409;DHT22;40315;48.620;9.828;2023-06-14T16:14:08;26.50;53.90
54409;DHT22;40315;48.620;9.828;2023-06-14T16:16:35;26.40;53.90
54409;DHT22;40315;48.620;9.828;2023-06-14T16:19:05;26.40;53.90
54409;DHT22;40315;48.620;9.828;2023-06-14T16:21:32;26.30;55.00
54409;DHT22;40315;48.620;9.828;2023-06-14T16:24:04;26.60;54.20
54409;DHT22;40315;48.620;9.828;2023-06-14T16:26:31;26.70;53.30
54409;DHT22;40315;48.620;9.828;2023-06-14T16:28:58;26.40;53.20
54409;DHT22;40315;48.620;9.828;2023-06-14T16:31:25;26.10;53.70
54409;DHT22;40315;48.620;9.828;2023-06-14T16:33:53;25.80;54.50
54409;DHT22;40315;48.620;9.828;2023-06-14T16:36:26;25.70;54.30
54409;DHT22;40315;48.620;9.828;2023-06-14T16:38:53;25.80;54.70
54409;DHT22;40315;48.620;9.828;2023-06-14T16:41:22;25.70;54.20
54409;DHT22;40315;48.620;9.828;2023-06-14T16:43:49;25.70;54.60
54409;DHT22;40315;48.620;9.828;2023-06-14T16:46:27;25.80;53.80
54409;DHT22;40315;48.620;9.828;2023-06-14T16:48:55;25.90;53.40
54409;DHT22;40315;48.620;9.828;2023-06-14T16:51:22;25.70;53.90
54409;DHT22;40315;48.620;9.828;2023-06-14T16:53:50;25.70;54.00
54409;DHT22;40315;48.620;9.828;2023-06-14T16:56:22;25.80;54.10
54409;DHT22;40315;48.620;9.828;2023-06-14T16:58:54;25.80;54.30
54409;DHT22;40315;48.620;9.828;2023-06-14T17:01:21;25.60;53.70
54409;DHT22;40315;48.620;9.828;2023-06-14T17:03:49;25.60;53.30
54409;DHT22;40315;48.620;9.828;2023-06-14T17:06:19;25.50;53.50
54409;DHT22;40315;48.620;9.828;2023-06-14T17:08:47;25.50;54.00
54409;DHT22;40315;48.620;9.828;2023-06-14T17:11:14;25.40;53.80
54409;DHT22;40315;48.620;9.828;2023-06-14T17:13:51;25.30;53.90
54409;DHT22;40315;48.620;9.828;2023-06-14T17:16:19;25.10;54.50
54409;DHT22;40315;48.620;9.828;2023-06-14T17:18:46;24.90;55.50
54409;DHT22;40315;48.620;9.828;2023-06-14T17:21:14;24.80;55.40
54409;DHT22;40315;48.620;9.828;2023-06-14T17:23:41;24.80;56.60
54409;DHT22;40315;48.620;9.828;2023-06-14T17:26:09;24.50;57.10
54409;DHT22;40315;48.620;9.828;2023-06-14T17:28:36;24.30;57.70
54409;DHT22;40315;48.620;9.828;2023-06-14T17:31:06;24.20;57.90
54409;DHT22;40315;48.620;9.828;2023-06-14T17:33:33;24.00;58.40
54409;DHT22;40315;48.620;9.828;2023-06-14T17:36:02;24.00;58.40
54409;DHT22;40315;48.620;9.828;2023-06-14T17:38:30;23.90;58.80
54409;DHT22;40315;48.620;9.828;2023-06-14T17:40:57;23.90;58.80
54409;DHT22;40315;48.620;9.828;2023-06-14T17:43:26;23.80;58.90
54409;DHT22;40315;48.620;9.828;2023-06-14T17:45:55;23.60;58.90
54409;DHT22;40315;48.620;9.828;2023-06-14T17:48:24;23.50;59.20